sensor_id;sensor_type;location;lat;lon;timestamp;pressure;altitude;pressure_sealevel;temperature;humidity
34034;BME280;63481;52.588;22.472;2023-05-08T00:00:11;101583.37;;;1.44;90.46
34034;BME280;63481;52.588;22.472;2023-05-08T00:01:03;101580.45;;;1.36;90.33
34034;BME280;63481;52.588;22.472;2023-05-08T00:01:35;101582.83;;;1.35;90.30
34034;BME280;63481;52.588;22.472;2023-05-08T00:02:07;101580.45;;;1.31;90.39
34034;BME280;63481;52.588;22.472;2023-05-08T00:02:39;101580.59;;;1.27;90.46
34034;BME280;63481;52.588;22.472;2023-05-08T00:03:12;101582.92;;;1.24;90.63
34034;BME280;63481;52.588;22.472;2023-05-08T00:03:44;101586.32;;;1.23;90.82
34034;BME280;63481;52.588;22.472;2023-05-08T00:04:16;101585.31;;;1.23;91.00
34034;BME280;63481;52.588;22.472;2023-05-08T00:04:50;101586.09;;;1.19;90.95
34034;BME280;63481;52.588;22.472;2023-05-08T00:05:22;101583.91;;;1.17;91.03
34034;BME280;63481;52.588;22.472;2023-05-08T00:05:54;101583.85;;;1.18;91.12
34034;BME280;63481;52.588;22.472;2023-05-08T00:06:26;101585.39;;;1.19;91.26
34034;BME280;63481;52.588;22.472;2023-05-08T00:06:58;101583.25;;;1.17;91.05
34034;BME280;63481;52.588;22.472;2023-05-08T00:07:30;101586.33;;;1.21;91.18
34034;BME280;63481;52.588;22.472;2023-05-08T00:08:02;101585.80;;;1.23;91.20
34034;BME280;63481;52.588;22.472;2023-05-08T00:08:34;101586.44;;;1.24;91.00
34034;BME280;63481;52.588;22.472;2023-05-08T00:09:05;101584.56;;;1.28;91.01
34034;BME280;63481;52.588;22.472;2023-05-08T00:09:37;101583.41;;;1.29;90.71
34034;BME280;63481;52.588;22.472;2023-05-08T00:10:10;101584.16;;;1.29;90.60
34034;BME280;63481;52.588;22.472;2023-05-08T00:10:42;101581.89;;;1.29;90.32
34034;BME280;63481;52.588;22.472;2023-05-08T00:11:14;101582.05;;;1.27;90.37
34034;BME280;63481;52.588;22.472;2023-05-08T00:11:46;101583.03;;;1.25;90.14
34034;BME280;63481;52.588;22.472;2023-05-08T00:12:17;101579.55;;;1.23;90.10
34034;BME280;63481;52.588;22.472;2023-05-08T00:12:49;101583.11;;;1.22;90.20
34034;BME280;63481;52.588;22.472;2023-05-08T00:13:21;101581.20;;;1.21;90.40
34034;BME280;63481;52.588;22.472;2023-05-08T00:13:53;101584.02;;;1.19;90.20
34034;BME280;63481;52.588;22.472;2023-05-08T00:14:25;101582.96;;;1.16;90.39
34034;BME280;63481;52.588;22.472;2023-05-08T00:14:57;101578.89;;;1.14;90.43
34034;BME280;63481;52.588;22.472;2023-05-08T00:15:29;101582.02;;;1.15;90.57
34034;BME280;63481;52.588;22.472;2023-05-08T00:16:01;101581.38;;;1.11;90.61
34034;BME280;63481;52.588;22.472;2023-05-08T00:16:33;101580.91;;;1.08;90.77
34034;BME280;63481;52.588;22.472;2023-05-08T00:17:05;101587.12;;;1.05;90.65
34034;BME280;63481;52.588;22.472;2023-05-08T00:17:37;101586.66;;;1.04;90.80
34034;BME280;63481;52.588;22.472;2023-05-08T00:18:09;101586.51;;;1.04;90.88
34034;BME280;63481;52.588;22.472;2023-05-08T00:18:41;101582.38;;;1.05;90.90
34034;BME280;63481;52.588;22.472;2023-05-08T00:19:13;101583.23;;;1.06;91.12
34034;BME280;63481;52.588;22.472;2023-05-08T00:19:45;101584.08;;;1.06;91.13
34034;BME280;63481;52.588;22.472;2023-05-08T00:20:17;101582.73;;;1.08;91.07
34034;BME280;63481;52.588;22.472;2023-05-08T00:20:49;101582.20;;;1.10;91.06
34034;BME280;63481;52.588;22.472;2023-05-08T00:21:21;101581.23;;;1.09;90.99
34034;BME280;63481;52.588;22.472;2023-05-08T00:21:52;101580.59;;;1.08;91.01
34034;BME280;63481;52.588;22.472;2023-05-08T00:22:24;101578.81;;;1.11;91.10
34034;BME280;63481;52.588;22.472;2023-05-08T00:22:56;101582.30;;;1.11;90.99
34034;BME280;63481;52.588;22.472;2023-05-08T00:23:28;101577.73;;;1.11;90.90
34034;BME280;63481;52.588;22.472;2023-05-08T00:24:00;101580.81;;;1.15;90.74
34034;BME280;63481;52.588;22.472;2023-05-08T00:24:32;101577.08;;;1.15;90.53
34034;BME280;63481;52.588;22.472;2023-05-08T00:25:04;101578.25;;;1.14;90.56
34034;BME280;63481;52.588;22.472;2023-05-08T00:25:37;101578.70;;;1.15;90.43
34034;BME280;63481;52.588;22.472;2023-05-08T00:26:09;101578.89;;;1.14;90.32
34034;BME280;63481;52.588;22.472;2023-05-08T00:26:41;101576.65;;;1.14;90.35
34034;BME280;63481;52.588;22.472;2023-05-08T00:27:14;101580.02;;;1.16;90.28
34034;BME280;63481;52.588;22.472;2023-05-08T00:27:48;101580.13;;;1.14;90.38
34034;BME280;63481;52.588;22.472;2023-05-08T00:28:21;101577.60;;;1.13;90.38
34034;BME280;63481;52.588;22.472;2023-05-08T00:28:53;101578.63;;;1.13;90.46
34034;BME280;63481;52.588;22.472;2023-05-08T00:29:25;101577.54;;;1.14;90.48
34034;BME280;63481;52.588;22.472;2023-05-08T00:29:57;101580.76;;;1.15;90.55
34034;BME280;63481;52.588;22.472;2023-05-08T00:30:29;101577.98;;;1.17;90.51
34034;BME280;63481;52.588;22.472;2023-05-08T00:31:02;101580.66;;;1.19;90.50
34034;BME280;63481;52.588;22.472;2023-05-08T00:31:34;101580.44;;;1.19;90.51
34034;BME280;63481;52.588;22.472;2023-05-08T00:32:06;101580.77;;;1.17;90.41
34034;BME280;63481;52.588;22.472;2023-05-08T00:32:39;101582.29;;;1.16;90.31
34034;BME280;63481;52.588;22.472;2023-05-08T00:33:11;101583.23;;;1.15;90.50
34034;BME280;63481;52.588;22.472;2023-05-08T00:33:43;101583.00;;;1.13;90.29
34034;BME280;63481;52.588;22.472;2023-05-08T00:34:15;101581.69;;;1.12;90.45
34034;BME280;63481;52.588;22.472;2023-05-08T00:34:47;101582.14;;;1.11;90.35
34034;BME280;63481;52.588;22.472;2023-05-08T00:35:19;101585.96;;;1.11;90.78
34034;BME280;63481;52.588;22.472;2023-05-08T00:35:57;101581.92;;;1.11;90.75
34034;BME280;63481;52.588;22.472;2023-05-08T00:36:29;101584.04;;;1.11;90.66
34034;BME280;63481;52.588;22.472;2023-05-08T00:37:02;101582.88;;;1.13;90.58
34034;BME280;63481;52.588;22.472;2023-05-08T00:37:34;101583.08;;;1.12;90.35
34034;BME280;63481;52.588;22.472;2023-05-08T00:38:08;101583.19;;;1.13;90.23
34034;BME280;63481;52.588;22.472;2023-05-08T00:38:41;101584.02;;;1.11;90.22
34034;BME280;63481;52.588;22.472;2023-05-08T00:39:13;101584.60;;;1.11;90.13
34034;BME280;63481;52.588;22.472;2023-05-08T00:39:44;101585.89;;;1.12;90.00
34034;BME280;63481;52.588;22.472;2023-05-08T00:40:16;101586.17;;;1.13;90.02
34034;BME280;63481;52.588;22.472;2023-05-08T00:40:48;101588.28;;;1.11;89.81
34034;BME280;63481;52.588;22.472;2023-05-08T00:41:20;101586.58;;;1.08;89.84
34034;BME280;63481;52.588;22.472;2023-05-08T00:41:52;101590.31;;;1.05;89.91
34034;BME280;63481;52.588;22.472;2023-05-08T00:42:24;101587.95;;;1.06;89.83
34034;BME280;63481;52.588;22.472;2023-05-08T00:42:56;101591.06;;;1.04;90.00
34034;BME280;63481;52.588;22.472;2023-05-08T00:43:28;101592.04;;;1.05;90.08
34034;BME280;63481;52.588;22.472;2023-05-08T00:44:00;101590.33;;;1.04;90.07
34034;BME280;63481;52.588;22.472;2023-05-08T00:44:32;101593.70;;;1.06;90.09
34034;BME280;63481;52.588;22.472;2023-05-08T00:45:04;101592.21;;;1.07;90.10
34034;BME280;63481;52.588;22.472;2023-05-08T00:45:38;101594.39;;;1.09;89.93
34034;BME280;63481;52.588;22.472;2023-05-08T00:46:10;101599.45;;;1.09;89.96
34034;BME280;63481;52.588;22.472;2023-05-08T00:46:43;101597.18;;;1.09;89.86
34034;BME280;63481;52.588;22.472;2023-05-08T00:47:15;101597.52;;;1.09;89.78
34034;BME280;63481;52.588;22.472;2023-05-08T00:47:48;101596.18;;;1.08;89.79
34034;BME280;63481;52.588;22.472;2023-05-08T00:48:22;101598.10;;;1.10;89.83
34034;BME280;63481;52.588;22.472;2023-05-08T00:48:57;101598.83;;;1.08;89.81
34034;BME280;63481;52.588;22.472;2023-05-08T00:49:29;101601.41;;;1.04;89.75
34034;BME280;63481;52.588;22.472;2023-05-08T00:50:01;101602.66;;;1.01;89.95
34034;BME280;63481;52.588;22.472;2023-05-08T00:50:35;101602.02;;;1.03;89.90
34034;BME280;63481;52.588;22.472;2023-05-08T00:51:07;101605.96;;;1.04;90.00
34034;BME280;63481;52.588;22.472;2023-05-08T00:51:40;101604.92;;;1.06;89.97
34034;BME280;63481;52.588;22.472;2023-05-08T00:52:14;101604.55;;;1.04;89.99
34034;BME280;63481;52.588;22.472;2023-05-08T00:52:47;101603.80;;;1.03;89.97
34034;BME280;63481;52.588;22.472;2023-05-08T00:53:20;101604.29;;;1.00;90.01
34034;BME280;63481;52.588;22.472;2023-05-08T00:53:53;101607.58;;;0.99;90.00
34034;BME280;63481;52.588;22.472;2023-05-08T00:54:25;101606.87;;;0.96;90.15
34034;BME280;63481;52.588;22.472;2023-05-08T00:54:59;101608.13;;;0.93;90.07
34034;BME280;63481;52.588;22.472;2023-05-08T00:55:32;101606.95;;;0.90;90.25
34034;BME280;63481;52.588;22.472;2023-05-08T00:56:04;101604.85;;;0.88;90.22
34034;BME280;63481;52.588;22.472;2023-05-08T00:56:38;101609.18;;;0.84;90.35
34034;BME280;63481;52.588;22.472;2023-05-08T00:57:11;101606.23;;;0.84;90.40
34034;BME280;63481;52.588;22.472;2023-05-08T00:57:46;101606.41;;;0.81;90.41
34034;BME280;63481;52.588;22.472;2023-05-08T00:58:19;101608.08;;;0.80;90.67
34034;BME280;63481;52.588;22.472;2023-05-08T00:58:52;101610.70;;;0.75;90.62
34034;BME280;63481;52.588;22.472;2023-05-08T00:59:25;101608.67;;;0.76;90.73
34034;BME280;63481;52.588;22.472;2023-05-08T00:59:58;101611.31;;;0.79;90.79
34034;BME280;63481;52.588;22.472;2023-05-08T01:00:31;101609.56;;;0.84;90.85
34034;BME280;63481;52.588;22.472;2023-05-08T01:01:04;101611.60;;;0.84;90.63
34034;BME280;63481;52.588;22.472;2023-05-08T01:01:36;101613.40;;;0.84;90.45
34034;BME280;63481;52.588;22.472;2023-05-08T01:02:09;101611.52;;;0.81;90.58
34034;BME280;63481;52.588;22.472;2023-05-08T01:02:41;101612.54;;;0.76;90.44
34034;BME280;63481;52.588;22.472;2023-05-08T01:03:14;101613.73;;;0.75;90.44
34034;BME280;63481;52.588;22.472;2023-05-08T01:03:46;101611.17;;;0.73;90.57
34034;BME280;63481;52.588;22.472;2023-05-08T01:04:20;101612.41;;;0.71;90.59
34034;BME280;63481;52.588;22.472;2023-05-08T01:04:52;101615.38;;;0.68;90.49
34034;BME280;63481;52.588;22.472;2023-05-08T01:05:28;101615.38;;;0.66;90.58
34034;BME280;63481;52.588;22.472;2023-05-08T01:06:02;101616.95;;;0.64;90.54
34034;BME280;63481;52.588;22.472;2023-05-08T01:06:34;101620.21;;;0.62;90.71
34034;BME280;63481;52.588;22.472;2023-05-08T01:07:07;101616.46;;;0.60;90.56
34034;BME280;63481;52.588;22.472;2023-05-08T01:07:39;101617.77;;;0.59;90.55
34034;BME280;63481;52.588;22.472;2023-05-08T01:08:11;101618.90;;;0.58;90.59
34034;BME280;63481;52.588;22.472;2023-05-08T01:08:44;101616.27;;;0.58;90.71
34034;BME280;63481;52.588;22.472;2023-05-08T01:09:16;101616.91;;;0.57;90.77
34034;BME280;63481;52.588;22.472;2023-05-08T01:09:48;101620.31;;;0.60;90.69
34034;BME280;63481;52.588;22.472;2023-05-08T01:10:20;101617.25;;;0.65;90.79
34034;BME280;63481;52.588;22.472;2023-05-08T01:11:21;101616.92;;;0.67;90.71
34034;BME280;63481;52.588;22.472;2023-05-08T01:12:14;101622.59;;;0.71;90.21
34034;BME280;63481;52.588;22.472;2023-05-08T01:16:01;101624.05;;;0.55;90.57
34034;BME280;63481;52.588;22.472;2023-05-08T01:16:45;101624.55;;;0.50;90.69
34034;BME280;63481;52.588;22.472;2023-05-08T01:18:06;101623.58;;;0.47;90.59
34034;BME280;63481;52.588;22.472;2023-05-08T01:18:46;101626.44;;;0.43;90.92
34034;BME280;63481;52.588;22.472;2023-05-08T01:20:21;101626.77;;;0.46;91.03
34034;BME280;63481;52.588;22.472;2023-05-08T01:21:20;101629.16;;;0.44;90.88
34034;BME280;63481;52.588;22.472;2023-05-08T01:21:59;101627.23;;;0.42;90.97
34034;BME280;63481;52.588;22.472;2023-05-08T01:23:38;101633.95;;;0.41;91.36
34034;BME280;63481;52.588;22.472;2023-05-08T01:26:41;101629.23;;;0.43;91.58
34034;BME280;63481;52.588;22.472;2023-05-08T01:30:57;101634.59;;;0.42;91.94
34034;BME280;63481;52.588;22.472;2023-05-08T01:31:46;101634.35;;;0.38;92.09
34034;BME280;63481;52.588;22.472;2023-05-08T01:32:24;101632.25;;;0.36;92.19
34034;BME280;63481;52.588;22.472;2023-05-08T01:33:01;101631.11;;;0.34;92.23
34034;BME280;63481;52.588;22.472;2023-05-08T01:33:57;101632.98;;;0.35;92.32
34034;BME280;63481;52.588;22.472;2023-05-08T01:34:32;101632.92;;;0.43;92.40
34034;BME280;63481;52.588;22.472;2023-05-08T01:35:44;101633.81;;;0.70;92.41
34034;BME280;63481;52.588;22.472;2023-05-08T01:36:46;101634.92;;;0.72;92.00
34034;BME280;63481;52.588;22.472;2023-05-08T01:37:27;101630.29;;;0.61;91.86
34034;BME280;63481;52.588;22.472;2023-05-08T01:38:08;101632.65;;;0.57;91.82
34034;BME280;63481;52.588;22.472;2023-05-08T01:39:16;101633.72;;;0.52;91.80
34034;BME280;63481;52.588;22.472;2023-05-08T01:39:56;101637.04;;;0.49;91.70
34034;BME280;63481;52.588;22.472;2023-05-08T01:40:55;101634.45;;;0.46;91.80
34034;BME280;63481;52.588;22.472;2023-05-08T01:41:33;101636.19;;;0.42;91.87
34034;BME280;63481;52.588;22.472;2023-05-08T01:42:19;101634.03;;;0.40;91.84
34034;BME280;63481;52.588;22.472;2023-05-08T01:43:02;101638.27;;;0.39;91.83
34034;BME280;63481;52.588;22.472;2023-05-08T01:44:12;101637.43;;;0.39;91.99
34034;BME280;63481;52.588;22.472;2023-05-08T01:45:08;101636.69;;;0.40;92.07
34034;BME280;63481;52.588;22.472;2023-05-08T01:45:44;101637.20;;;0.42;92.18
34034;BME280;63481;52.588;22.472;2023-05-08T01:46:21;101640.09;;;0.43;92.16
34034;BME280;63481;52.588;22.472;2023-05-08T01:46:55;101639.13;;;0.45;92.25
34034;BME280;63481;52.588;22.472;2023-05-08T01:47:32;101640.04;;;0.44;92.24
34034;BME280;63481;52.588;22.472;2023-05-08T01:48:10;101640.73;;;0.42;92.19
34034;BME280;63481;52.588;22.472;2023-05-08T01:48:50;101642.83;;;0.37;92.25
34034;BME280;63481;52.588;22.472;2023-05-08T01:49:33;101643.35;;;0.37;92.37
34034;BME280;63481;52.588;22.472;2023-05-08T01:50:21;101639.61;;;0.50;92.36
34034;BME280;63481;52.588;22.472;2023-05-08T01:51:00;101638.55;;;0.55;92.20
34034;BME280;63481;52.588;22.472;2023-05-08T01:51:38;101636.88;;;0.54;92.26
34034;BME280;63481;52.588;22.472;2023-05-08T01:52:19;101638.07;;;0.54;92.00
34034;BME280;63481;52.588;22.472;2023-05-08T01:52:57;101634.85;;;0.51;92.02
34034;BME280;63481;52.588;22.472;2023-05-08T01:53:44;101636.98;;;0.48;92.17
34034;BME280;63481;52.588;22.472;2023-05-08T01:54:21;101636.27;;;0.43;92.03
34034;BME280;63481;52.588;22.472;2023-05-08T01:55:08;101641.29;;;0.39;92.01
34034;BME280;63481;52.588;22.472;2023-05-08T01:55:42;101638.09;;;0.35;92.03
34034;BME280;63481;52.588;22.472;2023-05-08T01:56:17;101642.93;;;0.33;92.20
34034;BME280;63481;52.588;22.472;2023-05-08T01:56:54;101641.92;;;0.32;92.38
34034;BME280;63481;52.588;22.472;2023-05-08T01:57:28;101640.11;;;0.33;92.51
34034;BME280;63481;52.588;22.472;2023-05-08T01:58:03;101642.17;;;0.33;92.52
34034;BME280;63481;52.588;22.472;2023-05-08T01:58:38;101641.45;;;0.34;92.61
34034;BME280;63481;52.588;22.472;2023-05-08T01:59:14;101641.25;;;0.35;92.67
34034;BME280;63481;52.588;22.472;2023-05-08T01:59:48;101642.17;;;0.34;92.74
34034;BME280;63481;52.588;22.472;2023-05-08T02:00:22;101649.03;;;0.33;92.62
34034;BME280;63481;52.588;22.472;2023-05-08T02:00:56;101645.33;;;0.31;92.58
34034;BME280;63481;52.588;22.472;2023-05-08T02:01:32;101645.27;;;0.30;92.60
34034;BME280;63481;52.588;22.472;2023-05-08T02:02:05;101646.23;;;0.28;92.56
34034;BME280;63481;52.588;22.472;2023-05-08T02:02:37;101646.65;;;0.27;92.72
34034;BME280;63481;52.588;22.472;2023-05-08T02:03:11;101649.21;;;0.28;92.77
34034;BME280;63481;52.588;22.472;2023-05-08T02:03:45;101648.31;;;0.29;92.81
34034;BME280;63481;52.588;22.472;2023-05-08T02:04:19;101647.63;;;0.31;92.82
34034;BME280;63481;52.588;22.472;2023-05-08T02:04:52;101648.24;;;0.32;92.73
34034;BME280;63481;52.588;22.472;2023-05-08T02:05:26;101647.92;;;0.34;92.89
34034;BME280;63481;52.588;22.472;2023-05-08T02:06:00;101649.34;;;0.36;92.78
34034;BME280;63481;52.588;22.472;2023-05-08T02:06:33;101652.14;;;0.39;92.79
34034;BME280;63481;52.588;22.472;2023-05-08T02:07:06;101652.08;;;0.39;92.48
34034;BME280;63481;52.588;22.472;2023-05-08T02:07:40;101651.73;;;0.42;92.59
34034;BME280;63481;52.588;22.472;2023-05-08T02:08:14;101649.92;;;0.40;92.38
34034;BME280;63481;52.588;22.472;2023-05-08T02:08:48;101654.35;;;0.40;92.18
34034;BME280;63481;52.588;22.472;2023-05-08T02:09:23;101653.16;;;0.39;92.13
34034;BME280;63481;52.588;22.472;2023-05-08T02:09:56;101652.35;;;0.36;91.81
34034;BME280;63481;52.588;22.472;2023-05-08T02:10:30;101652.95;;;0.37;91.71
34034;BME280;63481;52.588;22.472;2023-05-08T02:11:03;101652.73;;;0.35;91.46
34034;BME280;63481;52.588;22.472;2023-05-08T02:11:39;101650.73;;;0.34;91.31
34034;BME280;63481;52.588;22.472;2023-05-08T02:12:15;101650.70;;;0.34;91.29
34034;BME280;63481;52.588;22.472;2023-05-08T02:12:49;101652.30;;;0.34;91.26
34034;BME280;63481;52.588;22.472;2023-05-08T02:13:21;101650.53;;;0.34;90.94
34034;BME280;63481;52.588;22.472;2023-05-08T02:13:56;101651.34;;;0.33;90.95
34034;BME280;63481;52.588;22.472;2023-05-08T02:14:30;101652.78;;;0.32;90.84
34034;BME280;63481;52.588;22.472;2023-05-08T02:15:04;101654.19;;;0.32;90.80
34034;BME280;63481;52.588;22.472;2023-05-08T02:15:38;101652.66;;;0.29;90.70
34034;BME280;63481;52.588;22.472;2023-05-08T02:16:12;101649.94;;;0.28;90.70
34034;BME280;63481;52.588;22.472;2023-05-08T02:16:47;101653.04;;;0.26;90.72
34034;BME280;63481;52.588;22.472;2023-05-08T02:17:19;101654.31;;;0.25;90.83
34034;BME280;63481;52.588;22.472;2023-05-08T02:17:53;101654.42;;;0.26;90.70
34034;BME280;63481;52.588;22.472;2023-05-08T02:18:27;101656.45;;;0.27;90.85
34034;BME280;63481;52.588;22.472;2023-05-08T02:19:01;101655.48;;;0.26;90.80
34034;BME280;63481;52.588;22.472;2023-05-08T02:19:34;101659.05;;;0.25;90.89
34034;BME280;63481;52.588;22.472;2023-05-08T02:20:11;101655.09;;;0.24;90.87
34034;BME280;63481;52.588;22.472;2023-05-08T02:20:46;101655.06;;;0.25;90.89
34034;BME280;63481;52.588;22.472;2023-05-08T02:21:20;101656.83;;;0.22;90.88
34034;BME280;63481;52.588;22.472;2023-05-08T02:21:54;101658.55;;;0.22;91.00
34034;BME280;63481;52.588;22.472;2023-05-08T02:22:27;101659.82;;;0.22;91.13
34034;BME280;63481;52.588;22.472;2023-05-08T02:22:59;101656.65;;;0.22;91.09
34034;BME280;63481;52.588;22.472;2023-05-08T02:23:35;101659.52;;;0.21;91.20
34034;BME280;63481;52.588;22.472;2023-05-08T02:24:07;101661.66;;;0.23;91.14
34034;BME280;63481;52.588;22.472;2023-05-08T02:24:40;101658.87;;;0.25;91.18
34034;BME280;63481;52.588;22.472;2023-05-08T02:25:14;101660.79;;;0.28;91.20
34034;BME280;63481;52.588;22.472;2023-05-08T02:25:47;101656.81;;;0.27;91.21
34034;BME280;63481;52.588;22.472;2023-05-08T02:26:21;101661.09;;;0.28;91.17
34034;BME280;63481;52.588;22.472;2023-05-08T02:26:55;101661.16;;;0.27;91.18
34034;BME280;63481;52.588;22.472;2023-05-08T02:27:29;101662.69;;;0.28;91.11
34034;BME280;63481;52.588;22.472;2023-05-08T02:28:02;101662.79;;;0.27;91.26
34034;BME280;63481;52.588;22.472;2023-05-08T02:28:35;101663.67;;;0.32;91.09
34034;BME280;63481;52.588;22.472;2023-05-08T02:29:08;101664.98;;;0.38;91.10
34034;BME280;63481;52.588;22.472;2023-05-08T02:29:41;101664.59;;;0.38;90.94
34034;BME280;63481;52.588;22.472;2023-05-08T02:30:14;101663.48;;;0.39;90.98
34034;BME280;63481;52.588;22.472;2023-05-08T02:30:49;101663.52;;;0.38;90.82
34034;BME280;63481;52.588;22.472;2023-05-08T02:31:23;101662.30;;;0.36;90.78
34034;BME280;63481;52.588;22.472;2023-05-08T02:31:55;101662.28;;;0.34;90.83
34034;BME280;63481;52.588;22.472;2023-05-08T02:32:28;101660.66;;;0.32;90.83
34034;BME280;63481;52.588;22.472;2023-05-08T02:33:02;101667.55;;;0.28;90.86
34034;BME280;63481;52.588;22.472;2023-05-08T02:33:38;101664.80;;;0.28;90.95
34034;BME280;63481;52.588;22.472;2023-05-08T02:34:12;101662.48;;;0.29;91.09
34034;BME280;63481;52.588;22.472;2023-05-08T02:34:44;101662.48;;;0.31;91.07
34034;BME280;63481;52.588;22.472;2023-05-08T02:35:18;101661.17;;;0.32;90.90
34034;BME280;63481;52.588;22.472;2023-05-08T02:35:54;101662.23;;;0.32;91.02
34034;BME280;63481;52.588;22.472;2023-05-08T02:36:27;101662.59;;;0.30;90.77
34034;BME280;63481;52.588;22.472;2023-05-08T02:37:02;101663.40;;;0.25;90.81
34034;BME280;63481;52.588;22.472;2023-05-08T02:37:35;101666.23;;;0.25;90.83
34034;BME280;63481;52.588;22.472;2023-05-08T02:38:08;101665.02;;;0.27;90.69
34034;BME280;63481;52.588;22.472;2023-05-08T02:38:43;101665.27;;;0.31;90.79
34034;BME280;63481;52.588;22.472;2023-05-08T02:39:18;101666.18;;;0.33;90.60
34034;BME280;63481;52.588;22.472;2023-05-08T02:39:55;101663.21;;;0.28;90.54
34034;BME280;63481;52.588;22.472;2023-05-08T02:40:30;101665.21;;;0.19;90.82
34034;BME280;63481;52.588;22.472;2023-05-08T02:41:05;101667.83;;;0.15;91.04
34034;BME280;63481;52.588;22.472;2023-05-08T02:41:39;101668.87;;;0.19;91.13
34034;BME280;63481;52.588;22.472;2023-05-08T02:42:12;101668.48;;;0.15;91.45
34034;BME280;63481;52.588;22.472;2023-05-08T02:42:44;101666.26;;;0.17;91.58
34034;BME280;63481;52.588;22.472;2023-05-08T02:43:18;101669.28;;;0.19;91.81
34034;BME280;63481;52.588;22.472;2023-05-08T02:43:50;101668.75;;;0.19;91.85
34034;BME280;63481;52.588;22.472;2023-05-08T02:44:23;101666.45;;;0.19;91.69
34034;BME280;63481;52.588;22.472;2023-05-08T02:44:55;101671.77;;;0.21;91.71
34034;BME280;63481;52.588;22.472;2023-05-08T02:45:32;101668.65;;;0.23;91.78
34034;BME280;63481;52.588;22.472;2023-05-08T02:47:09;101672.17;;;0.22;91.62
34034;BME280;63481;52.588;22.472;2023-05-08T02:48:06;101673.38;;;0.20;91.40
34034;BME280;63481;52.588;22.472;2023-05-08T02:48:50;101673.70;;;0.18;91.30
34034;BME280;63481;52.588;22.472;2023-05-08T02:49:34;101674.02;;;0.19;91.20
34034;BME280;63481;52.588;22.472;2023-05-08T02:50:17;101673.58;;;0.17;91.16
34034;BME280;63481;52.588;22.472;2023-05-08T02:50:57;101674.96;;;0.15;91.21
34034;BME280;63481;52.588;22.472;2023-05-08T02:52:14;101675.14;;;0.23;91.57
34034;BME280;63481;52.588;22.472;2023-05-08T02:52:50;101675.59;;;0.21;91.42
34034;BME280;63481;52.588;22.472;2023-05-08T02:53:36;101675.07;;;0.19;91.32
34034;BME280;63481;52.588;22.472;2023-05-08T02:54:23;101677.73;;;0.16;91.42
34034;BME280;63481;52.588;22.472;2023-05-08T02:55:14;101674.36;;;0.14;91.52
34034;BME280;63481;52.588;22.472;2023-05-08T02:55:51;101675.34;;;0.15;91.58
34034;BME280;63481;52.588;22.472;2023-05-08T02:56:39;101673.77;;;0.22;91.43
34034;BME280;63481;52.588;22.472;2023-05-08T02:57:30;101674.09;;;0.20;91.63
34034;BME280;63481;52.588;22.472;2023-05-08T02:58:28;101678.76;;;0.19;91.76
34034;BME280;63481;52.588;22.472;2023-05-08T02:59:15;101678.85;;;0.20;91.82
34034;BME280;63481;52.588;22.472;2023-05-08T03:00:46;101675.74;;;0.22;91.69
34034;BME280;63481;52.588;22.472;2023-05-08T03:01:28;101676.03;;;0.20;91.57
34034;BME280;63481;52.588;22.472;2023-05-08T03:02:09;101677.84;;;0.16;91.66
34034;BME280;63481;52.588;22.472;2023-05-08T03:02:45;101678.73;;;0.21;91.78
34034;BME280;63481;52.588;22.472;2023-05-08T03:03:22;101677.19;;;0.21;91.68
34034;BME280;63481;52.588;22.472;2023-05-08T03:04:08;101678.10;;;0.23;91.65
34034;BME280;63481;52.588;22.472;2023-05-08T03:05:50;101677.83;;;0.24;91.52
34034;BME280;63481;52.588;22.472;2023-05-08T03:06:08;101677.13;;;0.24;91.54
34034;BME280;63481;52.588;22.472;2023-05-08T03:06:45;101675.61;;;0.26;91.43
34034;BME280;63481;52.588;22.472;2023-05-08T03:07:20;101672.86;;;0.30;91.39
34034;BME280;63481;52.588;22.472;2023-05-08T03:07:56;101674.31;;;0.29;91.28
34034;BME280;63481;52.588;22.472;2023-05-08T03:08:33;101672.77;;;0.24;91.32
34034;BME280;63481;52.588;22.472;2023-05-08T03:09:16;101671.08;;;0.31;91.41
34034;BME280;63481;52.588;22.472;2023-05-08T03:09:55;101673.05;;;0.40;91.30
34034;BME280;63481;52.588;22.472;2023-05-08T03:10:32;101673.02;;;0.45;91.31
34034;BME280;63481;52.588;22.472;2023-05-08T03:11:10;101674.69;;;0.44;90.97
34034;BME280;63481;52.588;22.472;2023-05-08T03:11:47;101672.30;;;0.43;90.85
34034;BME280;63481;52.588;22.472;2023-05-08T03:12:22;101673.88;;;0.43;91.00
34034;BME280;63481;52.588;22.472;2023-05-08T03:12:56;101674.22;;;0.46;90.83
34034;BME280;63481;52.588;22.472;2023-05-08T03:13:31;101672.31;;;0.48;90.98
34034;BME280;63481;52.588;22.472;2023-05-08T03:14:09;101670.89;;;0.45;91.11
34034;BME280;63481;52.588;22.472;2023-05-08T03:14:51;101674.99;;;0.44;91.20
34034;BME280;63481;52.588;22.472;2023-05-08T03:15:46;101674.62;;;0.45;91.72
34034;BME280;63481;52.588;22.472;2023-05-08T03:16:23;101673.09;;;0.42;92.07
34034;BME280;63481;52.588;22.472;2023-05-08T03:16:58;101674.02;;;0.41;92.37
34034;BME280;63481;52.588;22.472;2023-05-08T03:17:32;101672.42;;;0.39;92.63
34034;BME280;63481;52.588;22.472;2023-05-08T03:18:10;101674.31;;;0.39;92.79
34034;BME280;63481;52.588;22.472;2023-05-08T03:19:18;101674.30;;;0.39;92.96
34034;BME280;63481;52.588;22.472;2023-05-08T03:19:55;101674.30;;;0.42;93.29
34034;BME280;63481;52.588;22.472;2023-05-08T03:20:32;101674.05;;;0.41;93.54
34034;BME280;63481;52.588;22.472;2023-05-08T03:21:08;101676.79;;;0.44;93.14
34034;BME280;63481;52.588;22.472;2023-05-08T03:21:44;101676.31;;;0.48;93.53
34034;BME280;63481;52.588;22.472;2023-05-08T03:22:18;101676.14;;;0.53;93.21
34034;BME280;63481;52.588;22.472;2023-05-08T03:22:54;101677.27;;;0.59;93.18
34034;BME280;63481;52.588;22.472;2023-05-08T03:23:29;101676.53;;;0.63;92.98